LEVT

Vitoria / Foronda Airport

Alava, Spain
TAF LEVT 212300Z 2200/2224 33007KT 9999 SCT020 SCT035 TX05/2214Z TNM01/2205Z TEMPO 2206/2224 3000 RA BKN014 PROB40 TEMPO 2206/2210 3000 -RASN BKN010
Issued Valid From Valid To
Jan-21 @ 23:00 UTC
(an hour ago)
Jan-22 @ 00:00 UTC
(25 minutes ago)
Jan-23 @ 00:00 UTC
(in 24 hours)
Jan-22 @ 00:00 to Jan-23 @ 00:00
TAF LEVT 212300Z 2200/2224 33007KT 9999 SCT020 SCT035 TX05/2214Z TNM01/2205Z
Wind Visibility Clouds
330° at 7 knots 10,000+ meters
  • Scattered at 2,000' AGL
  • Scattered at 3,500' AGL
Temporary  (Probability 40%) Jan-22 @ 06:00 to Jan-22 @ 10:00
PROB40 TEMPO 2206/2210 3000 -RASN BKN010
Visibility Clouds Conditions
2,993 meters
  • Broken at 1,000' AGL
  • Light Rain
  • Light Snow
Temporary Jan-22 @ 06:00 to Jan-23 @ 00:00
TEMPO 2206/2224 3000 RA BKN014
Visibility Clouds Conditions
2,993 meters
  • Broken at 1,400' AGL
  • Rain
TAF LEVT 212300Z 2200/2224 33007KT 9999 SCT020 SCT035 TX05/2214Z TNM01/2205Z TEMPO 2206/2224 3000 RA BKN014 PROB40 TEMPO 2206/2210 3000 -RASN BKN010
Issued Jan-21 @ 23:00 UTC
(an hour ago)
Valid From Jan-22 @ 00:00 UTC
(25 minutes ago)
Valid To Jan-23 @ 00:00 UTC
(in 24 hours)
Jan-22 @ 00:00 - Jan-23 @ 00:00
Wind Visibility
330° at 7 knots 10,000+ meters
Clouds
  • Scattered at 2,000' AGL
  • Scattered at 3,500' AGL
Probability 40% Temporary Jan-22 @ 06:00 - Jan-22 @ 10:00
Clouds
  • Broken at 1,000' AGL
Conditions
  • Light Rain
  • Light Snow
Temporary Jan-22 @ 06:00 - Jan-23 @ 00:00
Clouds
  • Broken at 1,400' AGL
Conditions
  • Rain